Time;durP1;ratioP1;P1;durP2;ratioP2;P2;SDS_P1;SDS_P2;PMS_P1;PMS_P2;Temp;Humidity;BMP_temperature;BMP_pressure;BME280_temperature;BME280_humidity;BME280_pressure;Samples;Min_cycle;Max_cycle;Signal;HPM_P1;HPM_P2
2021/01/11 00:02:05;;;;;;;18.97;8.57;;;;;;;-2.74;100.00;98729.72;5034631;28;20701;-70
2021/01/11 00:04:31;;;;;;;16.10;7.07;;;;;;;-2.78;100.00;98728.28;5039637;28;20713;-70
2021/01/11 00:06:58;;;;;;;16.60;7.63;;;;;;;-2.83;100.00;98739.00;5043921;28;20588;-71
2021/01/11 00:09:25;;;;;;;18.93;8.57;;;;;;;-2.83;100.00;98734.72;5044078;28;20202;-70
2021/01/11 00:11:52;;;;;;;19.30;9.23;;;;;;;-2.86;100.00;98743.59;5042473;28;20705;-70
2021/01/11 00:14:18;;;;;;;21.43;8.33;;;;;;;-2.89;100.00;98740.38;5048975;28;20254;-71
2021/01/11 00:16:46;;;;;;;16.43;8.77;;;;;;;-2.92;100.00;98737.94;5044491;28;20200;-70
2021/01/11 00:19:13;;;;;;;20.27;9.43;;;;;;;-3.03;100.00;98736.88;5037660;28;20268;-70
2021/01/11 00:21:40;;;;;;;21.87;9.47;;;;;;;-3.03;100.00;98740.41;5038781;28;20280;-70
2021/01/11 00:24:07;;;;;;;21.47;9.67;;;;;;;-3.05;100.00;98732.69;5036991;28;20202;-72
2021/01/11 00:26:34;;;;;;;17.63;9.03;;;;;;;-2.96;100.00;98732.09;5044587;28;20208;-70
2021/01/11 00:29:01;;;;;;;20.37;9.20;;;;;;;-3.00;100.00;98730.59;5042430;28;20243;-71
2021/01/11 00:31:28;;;;;;;19.10;8.90;;;;;;;-2.98;100.00;98725.28;5041161;28;20202;-70
2021/01/11 00:33:55;;;;;;;20.23;7.97;;;;;;;-3.03;100.00;98720.38;5044399;28;20292;-71
2021/01/11 00:36:22;;;;;;;20.93;8.27;;;;;;;-3.06;100.00;98720.56;5031768;28;20241;-71
2021/01/11 00:38:49;;;;;;;18.57;7.77;;;;;;;-3.15;100.00;98726.38;5047457;28;20581;-71
2021/01/11 00:41:20;;;;;;;19.37;8.63;;;;;;;-3.09;100.00;98727.78;5040001;28;20205;-71
2021/01/11 00:43:47;;;;;;;18.07;8.53;;;;;;;-3.13;100.00;98727.94;5032036;28;20239;-71
2021/01/11 00:46:21;;;;;;;18.33;8.40;;;;;;;-3.27;100.00;98724.56;5044448;28;20206;-71
2021/01/11 00:48:48;;;;;;;19.03;9.63;;;;;;;-3.34;100.00;98723.28;5044390;28;20216;-71
2021/01/11 00:51:16;;;;;;;18.13;8.07;;;;;;;-3.32;100.00;98718.81;5043149;28;20210;-70
2021/01/11 00:53:44;;;;;;;17.53;8.07;;;;;;;-3.26;100.00;98721.00;5041796;28;20226;-70
2021/01/11 00:56:11;;;;;;;20.03;8.20;;;;;;;-3.23;100.00;98717.38;5040866;28;20195;-70
2021/01/11 00:58:38;;;;;;;20.67;8.93;;;;;;;-3.24;100.00;98723.53;5033859;28;20229;-71
2021/01/11 01:01:05;;;;;;;16.43;7.80;;;;;;;-3.28;100.00;98720.28;5041215;28;20212;-70
2021/01/11 01:03:32;;;;;;;17.53;7.90;;;;;;;-3.15;100.00;98720.34;5039665;28;20251;-72
2021/01/11 01:05:59;;;;;;;17.70;8.47;;;;;;;-3.19;100.00;98719.72;5051975;28;20642;-71
2021/01/11 01:08:27;;;;;;;19.60;8.77;;;;;;;-3.33;100.00;98728.41;5041643;28;20593;-71
2021/01/11 01:10:54;;;;;;;20.23;8.90;;;;;;;-3.32;100.00;98724.03;5039841;28;20352;-72
2021/01/11 01:13:21;;;;;;;21.60;8.33;;;;;;;-3.34;100.00;98728.53;5048198;28;20228;-72
2021/01/11 01:15:48;;;;;;;19.70;8.57;;;;;;;-3.48;100.00;98720.72;5045594;28;20255;-71
2021/01/11 01:18:14;;;;;;;18.33;8.93;;;;;;;-3.51;100.00;98723.50;5039384;28;20202;-71
2021/01/11 01:20:41;;;;;;;21.43;8.33;;;;;;;-3.55;100.00;98716.81;5048554;28;20239;-72
2021/01/11 01:23:08;;;;;;;14.80;7.43;;;;;;;-3.51;100.00;98718.28;5043327;28;20224;-71
2021/01/11 01:25:35;;;;;;;21.50;8.27;;;;;;;-3.54;100.00;98717.66;5039023;28;20558;-71
2021/01/11 01:28:02;;;;;;;15.87;8.17;;;;;;;-3.56;100.00;98728.19;5047055;28;20228;-72
2021/01/11 01:30:29;;;;;;;20.93;8.67;;;;;;;-3.63;100.00;98731.28;5039139;28;20213;-71
2021/01/11 01:32:59;;;;;;;19.50;8.13;;;;;;;-3.59;100.00;98736.22;5038096;28;20594;-71
2021/01/11 01:35:26;;;;;;;18.63;9.03;;;;;;;-3.50;100.00;98733.00;5041596;28;20208;-71
2021/01/11 01:37:53;;;;;;;23.47;8.87;;;;;;;-3.54;100.00;98744.59;5044310;28;20359;-71
2021/01/11 01:40:20;;;;;;;19.40;8.57;;;;;;;-3.63;100.00;98745.97;5029206;28;20198;-71
2021/01/11 01:42:47;;;;;;;18.47;7.97;;;;;;;-3.64;100.00;98733.06;5048324;28;20459;-71
2021/01/11 01:45:14;;;;;;;19.23;8.03;;;;;;;-3.67;100.00;98732.41;5037783;28;20305;-71
2021/01/11 01:47:41;;;;;;;22.37;8.90;;;;;;;-3.71;100.00;98738.75;5039657;28;20226;-71
2021/01/11 01:50:09;;;;;;;20.43;8.73;;;;;;;-3.71;100.00;98742.19;5036284;28;20658;-71
2021/01/11 01:52:37;;;;;;;20.43;9.00;;;;;;;-3.71;100.00;98731.75;5044562;28;20245;-71
2021/01/11 01:55:05;;;;;;;16.33;8.03;;;;;;;-3.63;100.00;98738.16;5041115;28;20204;-71
2021/01/11 01:57:33;;;;;;;22.60;8.90;;;;;;;-3.67;100.00;98740.25;5035594;28;20202;-71
2021/01/11 02:00:01;;;;;;;17.77;8.13;;;;;;;-3.76;100.00;98748.63;5040528;28;20231;-71
2021/01/11 02:02:27;;;;;;;18.60;7.30;;;;;;;-3.74;100.00;98744.16;5049641;28;20237;-72
2021/01/11 02:04:54;;;;;;;21.23;8.80;;;;;;;-3.75;100.00;98742.47;5039891;28;20251;-72
2021/01/11 02:07:28;;;;;;;20.30;9.20;;;;;;;-3.78;100.00;98737.44;5043817;28;20225;-71
2021/01/11 02:10:02;;;;;;;21.77;8.53;;;;;;;-3.78;100.00;98740.03;5029693;28;20689;-71
2021/01/11 02:12:41;;;;;;;19.07;8.53;;;;;;;-3.78;100.00;98733.06;5040498;28;20235;-71
2021/01/11 02:15:12;;;;;;;20.80;8.03;;;;;;;-3.80;100.00;98726.28;5034254;28;20204;-71
2021/01/11 02:17:46;;;;;;;20.97;8.23;;;;;;;-3.87;100.00;98719.78;5039271;28;20191;-71
2021/01/11 02:20:48;;;;;;;18.30;8.60;;;;;;;-3.92;100.00;98727.03;5034543;28;20188;-70
2021/01/11 02:23:46;;;;;;;21.97;8.47;;;;;;;-3.90;100.00;98728.63;5017086;28;20220;-72
2021/01/11 02:26:24;;;;;;;20.43;8.90;;;;;;;-3.93;100.00;98723.59;5026191;28;20191;-72
2021/01/11 02:28:58;;;;;;;21.53;8.77;;;;;;;-3.90;100.00;98720.81;5037296;28;20243;-72
2021/01/11 02:31:27;;;;;;;20.40;8.27;;;;;;;-3.96;100.00;98718.56;5048467;28;20195;-72
2021/01/11 02:33:55;;;;;;;19.97;8.10;;;;;;;-3.95;100.00;98724.63;5034721;28;20650;-73
2021/01/11 02:36:23;;;;;;;18.03;8.97;;;;;;;-3.93;100.00;98712.31;5041157;28;20580;-71
2021/01/11 02:38:50;;;;;;;21.17;8.93;;;;;;;-3.85;100.00;98721.38;5034863;28;20205;-72
2021/01/11 02:41:17;;;;;;;18.33;7.93;;;;;;;-3.94;100.00;98723.69;5043779;28;20202;-71
2021/01/11 02:43:45;;;;;;;22.20;8.60;;;;;;;-3.99;100.00;98713.53;5034418;28;20230;-71
2021/01/11 02:46:12;;;;;;;22.43;8.73;;;;;;;-4.05;100.00;98720.91;5041890;28;20205;-72
2021/01/11 02:48:43;;;;;;;17.70;7.70;;;;;;;-3.99;100.00;98716.16;5044652;28;20686;-72
2021/01/11 02:51:18;;;;;;;21.97;8.50;;;;;;;-3.95;100.00;98706.38;5040602;28;20596;-72
2021/01/11 02:53:48;;;;;;;19.97;8.57;;;;;;;-3.96;100.00;98702.91;5033302;28;20221;-72
2021/01/11 02:56:20;;;;;;;21.10;9.03;;;;;;;-3.94;100.00;98701.06;5035813;28;20202;-71
2021/01/11 02:59:03;;;;;;;18.43;8.90;;;;;;;-4.00;100.00;98701.44;5040781;28;20190;-71
2021/01/11 03:01:35;;;;;;;18.00;8.93;;;;;;;-4.15;100.00;98711.97;5041207;28;20674;-71
2021/01/11 03:04:04;;;;;;;19.00;7.90;;;;;;;-4.10;100.00;98705.56;5036388;28;20215;-70
2021/01/11 03:06:31;;;;;;;20.70;8.43;;;;;;;-4.06;100.00;98703.59;5033111;28;20198;-73
2021/01/11 03:09:03;;;;;;;22.70;9.03;;;;;;;-4.06;100.00;98708.81;5032535;28;20314;-71
2021/01/11 03:11:30;;;;;;;22.93;8.33;;;;;;;-4.07;100.00;98712.34;5038635;28;20213;-71
2021/01/11 03:13:57;;;;;;;22.67;9.23;;;;;;;-4.09;100.00;98712.44;5033913;28;20209;-72
2021/01/11 03:16:24;;;;;;;18.40;8.67;;;;;;;-4.06;100.00;98717.44;5042858;28;20209;-71
2021/01/11 03:18:50;;;;;;;19.73;8.43;;;;;;;-3.95;100.00;98711.59;5037076;28;20194;-71
2021/01/11 03:21:18;;;;;;;18.50;8.80;;;;;;;-3.97;100.00;98700.44;5035657;28;20284;-73
2021/01/11 03:23:45;;;;;;;17.03;7.80;;;;;;;-3.96;100.00;98705.53;5043442;28;20217;-71
2021/01/11 03:26:11;;;;;;;21.57;9.33;;;;;;;-3.95;100.00;98703.75;5042926;28;20208;-71
2021/01/11 03:28:38;;;;;;;21.20;8.60;;;;;;;-4.03;100.00;98708.59;5038392;28;20221;-71
2021/01/11 03:31:08;;;;;;;19.40;7.77;;;;;;;-4.02;100.00;98705.09;5038510;28;20198;-71
2021/01/11 03:33:34;;;;;;;18.60;8.97;;;;;;;-4.03;100.00;98703.38;5039991;28;20222;-71
2021/01/11 03:36:01;;;;;;;18.60;8.33;;;;;;;-4.11;100.00;98716.06;5039799;28;20198;-71
2021/01/11 03:38:29;;;;;;;19.07;8.43;;;;;;;-4.18;100.00;98704.31;5035172;28;20651;-71
2021/01/11 03:41:00;;;;;;;20.33;8.30;;;;;;;-4.09;100.00;98712.44;5024216;28;20210;-71
2021/01/11 03:43:27;;;;;;;19.93;8.50;;;;;;;-4.17;100.00;98706.03;5046070;28;20589;-71
2021/01/11 03:45:54;;;;;;;22.53;8.63;;;;;;;-4.16;100.00;98712.91;5042501;28;20202;-71
2021/01/11 03:48:21;;;;;;;27.80;8.60;;;;;;;-4.29;100.00;98724.97;5040226;28;20702;-71
2021/01/11 03:50:48;;;;;;;25.60;9.07;;;;;;;-4.25;100.00;98716.91;5042351;28;20245;-71
2021/01/11 03:53:15;;;;;;;21.70;9.37;;;;;;;-4.18;100.00;98712.13;5046846;28;20218;-72
2021/01/11 03:55:43;;;;;;;18.77;8.10;;;;;;;-4.16;100.00;98705.09;5041360;28;20202;-72
2021/01/11 03:58:10;;;;;;;19.90;8.60;;;;;;;-4.20;100.00;98708.81;5046385;28;20562;-71
2021/01/11 04:00:37;;;;;;;20.37;8.70;;;;;;;-4.17;100.00;98709.44;5042048;28;20213;-72
2021/01/11 04:03:04;;;;;;;16.93;7.30;;;;;;;-4.31;100.00;98711.22;5043705;28;20260;-71
2021/01/11 04:05:32;;;;;;;18.13;7.83;;;;;;;-4.31;100.00;98706.81;5050873;28;20198;-72
2021/01/11 04:07:59;;;;;;;19.47;9.03;;;;;;;-4.33;100.00;98707.84;5044207;28;20253;-72
2021/01/11 04:10:26;;;;;;;22.63;8.27;;;;;;;-4.38;100.00;98708.13;5046238;28;20209;-72
2021/01/11 04:12:54;;;;;;;14.47;7.73;;;;;;;-4.34;100.00;98714.00;5041368;28;20728;-72
2021/01/11 04:15:21;;;;;;;17.13;8.27;;;;;;;-4.30;100.00;98708.53;5050495;28;20206;-72
2021/01/11 04:17:50;;;;;;;16.93;6.40;;;;;;;-4.24;100.00;98715.13;5048425;28;20202;-72
2021/01/11 04:20:17;;;;;;;20.97;8.57;;;;;;;-4.27;100.00;98717.94;5034160;28;20266;-72
2021/01/11 04:22:44;;;;;;;20.57;8.97;;;;;;;-4.31;100.00;98713.81;5045988;28;20225;-72
2021/01/11 04:25:12;;;;;;;20.30;9.40;;;;;;;-4.26;100.00;98717.00;5046235;28;20206;-72
2021/01/11 04:27:39;;;;;;;19.73;8.37;;;;;;;-4.17;100.00;98725.06;5047966;28;20236;-72
2021/01/11 04:30:08;;;;;;;24.30;10.33;;;;;;;-4.22;100.00;98721.09;5041451;28;20202;-72
2021/01/11 04:32:35;;;;;;;18.50;8.30;;;;;;;-4.20;100.00;98727.03;5050792;28;20275;-72
2021/01/11 04:35:02;;;;;;;21.80;9.43;;;;;;;-4.33;100.00;98716.50;5046701;28;20201;-72
2021/01/11 04:37:28;;;;;;;19.37;7.90;;;;;;;-4.32;100.00;98715.59;5043525;28;20684;-72
2021/01/11 04:39:55;;;;;;;16.33;7.80;;;;;;;-4.29;100.00;98727.59;5038050;28;20201;-73
2021/01/11 04:42:27;;;;;;;23.17;9.87;;;;;;;-4.29;100.00;98730.19;5051015;28;20225;-72
2021/01/11 04:44:56;;;;;;;23.63;9.10;;;;;;;-4.41;100.00;98730.94;5041282;28;20245;-72
2021/01/11 04:47:24;;;;;;;22.97;9.57;;;;;;;-4.51;100.00;98733.25;5041093;28;20769;-72
2021/01/11 04:49:53;;;;;;;20.43;8.80;;;;;;;-4.47;100.00;98721.72;5036520;28;20213;-72
2021/01/11 04:52:20;;;;;;;13.40;7.10;;;;;;;-4.41;100.00;98731.78;5041561;28;20219;-72
2021/01/11 04:54:50;;;;;;;18.83;9.03;;;;;;;-4.35;100.00;98727.97;5043593;28;20206;-72
2021/01/11 04:57:17;;;;;;;20.37;8.90;;;;;;;-4.37;100.00;98730.66;5040653;28;20601;-72
2021/01/11 04:59:49;;;;;;;22.10;8.93;;;;;;;-4.42;100.00;98735.28;5040540;28;20202;-72
2021/01/11 05:02:21;;;;;;;18.20;9.23;;;;;;;-4.40;100.00;98730.84;5046533;28;20258;-73
2021/01/11 05:04:49;;;;;;;21.17;8.80;;;;;;;-4.41;100.00;98718.75;5042217;28;20576;-73
2021/01/11 05:07:17;;;;;;;29.67;9.90;;;;;;;-4.47;100.00;98724.31;5035475;28;20225;-73
2021/01/11 05:09:45;;;;;;;21.03;9.07;;;;;;;-4.38;100.00;98725.53;5033930;28;20213;-72
2021/01/11 05:12:13;;;;;;;22.47;10.07;;;;;;;-4.44;100.00;98712.88;5040869;28;20218;-72
2021/01/11 05:14:41;;;;;;;20.27;9.57;;;;;;;-4.47;100.00;98723.50;5042146;28;20241;-71
2021/01/11 05:17:10;;;;;;;17.87;8.30;;;;;;;-4.47;100.00;98713.88;5038450;28;20202;-72
2021/01/11 05:19:37;;;;;;;25.47;10.30;;;;;;;-4.45;100.00;98712.06;5046402;28;20198;-72
2021/01/11 05:22:09;;;;;;;19.50;8.87;;;;;;;-4.39;100.00;98716.03;5037629;28;20214;-72
2021/01/11 05:24:37;;;;;;;21.47;9.07;;;;;;;-4.37;100.00;98714.19;5042859;28;20724;-72
2021/01/11 05:27:05;;;;;;;21.73;9.50;;;;;;;-4.44;100.00;98713.72;5026496;28;20226;-72
2021/01/11 05:29:32;;;;;;;22.77;9.13;;;;;;;-4.47;100.00;98716.50;5042263;28;20202;-71
2021/01/11 05:32:00;;;;;;;19.13;9.37;;;;;;;-4.48;100.00;98727.03;5048498;28;20222;-72
2021/01/11 05:34:44;;;;;;;20.70;9.57;;;;;;;-4.48;100.00;98721.81;5044387;28;20225;-72
2021/01/11 05:37:27;;;;;;;19.17;9.17;;;;;;;-4.52;100.00;98718.53;5043436;28;20188;-72
2021/01/11 05:40:03;;;;;;;22.10;9.37;;;;;;;-4.41;100.00;98721.38;5040862;28;20689;-72
2021/01/11 05:42:30;;;;;;;24.10;10.07;;;;;;;-4.42;100.00;98716.25;5048153;28;20229;-72
2021/01/11 05:45:09;;;;;;;21.67;10.33;;;;;;;-4.44;100.00;98721.53;5043603;28;20198;-74
2021/01/11 05:47:51;;;;;;;20.87;9.57;;;;;;;-4.48;100.00;98719.22;5046672;28;20670;-71
2021/01/11 05:50:18;;;;;;;22.17;9.27;;;;;;;-4.54;100.00;98722.16;5030798;28;20202;-71
2021/01/11 05:52:46;;;;;;;22.03;9.60;;;;;;;-4.44;100.00;98723.28;5038220;28;20232;-71
2021/01/11 05:55:20;;;;;;;21.73;9.73;;;;;;;-4.35;100.00;98731.41;5041103;28;20256;-71
2021/01/11 05:58:01;;;;;;;26.97;10.27;;;;;;;-4.39;100.00;98726.47;5037731;28;20200;-71
2021/01/11 06:00:29;;;;;;;25.37;8.93;;;;;;;-4.47;100.00;98728.69;5041354;28;20197;-74
2021/01/11 06:02:57;;;;;;;25.17;9.67;;;;;;;-4.48;100.00;98727.03;5030923;28;20226;-72
2021/01/11 06:05:25;;;;;;;20.03;8.97;;;;;;;-4.59;100.00;98724.19;5049302;28;20206;-71
2021/01/11 06:07:52;;;;;;;24.57;9.63;;;;;;;-4.61;100.00;98732.13;5041594;28;20221;-71
2021/01/11 06:10:21;;;;;;;23.23;10.27;;;;;;;-4.59;100.00;98732.84;5036947;28;20199;-70
2021/01/11 06:12:49;;;;;;;24.57;9.53;;;;;;;-4.52;100.00;98726.34;5052859;28;20225;-72
2021/01/11 06:15:17;;;;;;;23.20;9.70;;;;;;;-4.32;100.00;98733.00;5038803;28;20199;-73
2021/01/11 06:17:45;;;;;;;21.73;9.43;;;;;;;-4.41;100.00;98728.31;5038051;28;20666;-74
2021/01/11 06:20:17;;;;;;;28.73;9.73;;;;;;;-4.40;100.00;98728.25;5049435;28;20275;-73
2021/01/11 06:23:26;;;;;;;19.77;9.03;;;;;;;-4.33;100.00;98726.94;5047652;28;20233;-70
2021/01/11 06:25:53;;;;;;;32.22;13.57;;;;;;;-4.40;100.00;98717.81;5042209;28;20451;-72
2021/01/11 06:28:31;;;;;;;26.40;12.03;;;;;;;-4.42;100.00;98722.28;5047180;28;20581;-73
2021/01/11 06:31:11;;;;;;;23.43;9.40;;;;;;;-4.37;100.00;98714.19;5042896;28;20205;-71
2021/01/11 06:33:40;;;;;;;24.33;9.33;;;;;;;-4.37;100.00;98720.22;5036738;28;20222;-74
2021/01/11 06:36:21;;;;;;;23.83;10.93;;;;;;;-4.30;100.00;98718.09;5041260;28;20198;-74
2021/01/11 06:38:50;;;;;;;23.03;8.87;;;;;;;-4.40;100.00;98709.16;5034516;28;20202;-75
2021/01/11 06:41:17;;;;;;;21.97;9.37;;;;;;;-4.43;100.00;98715.38;5038776;28;20630;-74
2021/01/11 06:43:46;;;;;;;23.17;9.47;;;;;;;-4.43;100.00;98720.59;5045211;28;20224;-71
2021/01/11 06:46:39;;;;;;;19.00;9.27;;;;;;;-4.32;100.00;98720.78;5046067;28;20250;-72
2021/01/11 06:49:06;;;;;;;17.53;8.77;;;;;;;-4.43;100.00;98719.78;5035958;28;20226;-71
2021/01/11 06:51:41;;;;;;;20.33;9.20;;;;;;;-4.37;100.00;98720.22;5046973;28;20216;-73
2021/01/11 06:54:10;;;;;;;24.03;9.67;;;;;;;-4.37;100.00;98714.19;5041048;28;20197;-70
2021/01/11 06:56:37;;;;;;;26.27;10.00;;;;;;;-4.45;100.00;98714.66;5027728;28;20213;-70
2021/01/11 06:59:08;;;;;;;21.43;8.53;;;;;;;-4.31;100.00;98717.25;5036971;28;20193;-71
2021/01/11 07:01:38;;;;;;;19.93;8.60;;;;;;;-4.40;100.00;98724.78;5034277;28;20292;-72
2021/01/11 07:04:05;;;;;;;22.20;8.57;;;;;;;-4.47;100.00;98728.69;5035979;28;20217;-71
2021/01/11 07:06:39;;;;;;;21.73;9.80;;;;;;;-4.47;100.00;98733.91;5044933;28;20312;-73
2021/01/11 07:09:09;;;;;;;22.13;9.27;;;;;;;-4.54;100.00;98737.78;5039124;28;20572;-72
2021/01/11 07:11:38;;;;;;;21.23;9.07;;;;;;;-4.47;100.00;98724.31;5037820;28;20225;-73
2021/01/11 07:14:05;;;;;;;19.10;8.07;;;;;;;-4.43;100.00;98725.81;5034992;28;20596;-71
2021/01/11 07:16:41;;;;;;;17.47;8.83;;;;;;;-4.46;100.00;98728.63;5041196;28;20190;-72
2021/01/11 07:19:08;;;;;;;23.30;8.37;;;;;;;-4.40;100.00;98736.06;5031928;28;20236;-77
2021/01/11 07:21:36;;;;;;;21.60;9.67;;;;;;;-4.28;100.00;98737.06;5048520;28;20190;-75
2021/01/11 07:24:04;;;;;;;21.47;9.43;;;;;;;-4.26;100.00;98735.22;5042752;28;20209;-71
2021/01/11 07:26:33;;;;;;;21.50;9.17;;;;;;;-4.33;100.00;98729.53;5042340;28;20210;-71
2021/01/11 07:29:02;;;;;;;21.43;10.07;;;;;;;-4.39;100.00;98734.28;5031581;28;20229;-72
2021/01/11 07:31:31;;;;;;;21.30;8.97;;;;;;;-4.33;100.00;98733.91;5047489;28;20205;-72
2021/01/11 07:34:05;;;;;;;22.97;9.00;;;;;;;-4.26;100.00;98730.84;5033357;28;20673;-75
2021/01/11 07:36:35;;;;;;;23.20;10.10;;;;;;;-4.20;100.00;98732.25;5036912;28;20278;-71
2021/01/11 07:39:13;;;;;;;18.43;9.10;;;;;;;-4.17;100.00;98738.09;5029816;28;20263;-73
2021/01/11 07:41:42;;;;;;;27.00;10.77;;;;;;;-4.15;100.00;98748.44;5030829;28;20218;-71
2021/01/11 07:44:31;;;;;;;26.33;10.30;;;;;;;-4.06;100.00;98745.28;5037099;28;20259;-72
2021/01/11 07:47:00;;;;;;;21.53;8.50;;;;;;;-4.10;100.00;98747.25;5040847;28;20231;-72
2021/01/11 07:49:29;;;;;;;21.57;8.97;;;;;;;-4.05;100.00;98747.81;5044144;28;20589;-72
2021/01/11 07:52:02;;;;;;;23.07;9.60;;;;;;;-4.02;100.00;98741.56;5038661;28;20705;-72
2021/01/11 07:54:29;;;;;;;19.73;9.40;;;;;;;-3.96;100.00;98743.78;5050839;28;20202;-72
2021/01/11 07:56:57;;;;;;;19.73;9.17;;;;;;;-3.99;100.00;98751.78;5049929;28;20638;-71
2021/01/11 07:59:24;;;;;;;24.30;10.10;;;;;;;-3.98;100.00;98745.63;5049356;28;20263;-71
2021/01/11 08:01:51;;;;;;;20.10;9.40;;;;;;;-3.85;100.00;98749.19;5047288;28;20225;-70
2021/01/11 08:04:19;;;;;;;24.57;10.90;;;;;;;-3.78;100.00;98760.91;5041273;28;20205;-70
2021/01/11 08:06:50;;;;;;;19.40;9.00;;;;;;;-3.70;100.00;98769.94;5049507;28;20202;-71
2021/01/11 08:09:17;;;;;;;25.13;10.53;;;;;;;-3.74;100.00;98772.81;5048461;28;20209;-70
2021/01/11 08:11:46;;;;;;;25.33;10.87;;;;;;;-3.72;100.00;98779.63;5036689;28;20205;-71
2021/01/11 08:14:14;;;;;;;24.40;10.43;;;;;;;-3.60;100.00;98783.25;5038078;28;20229;-72
2021/01/11 08:16:43;;;;;;;23.93;10.00;;;;;;;-3.49;100.00;98770.38;5047779;28;20291;-73
2021/01/11 08:19:11;;;;;;;23.97;10.50;;;;;;;-3.34;100.00;98780.69;5044149;28;20205;-70
2021/01/11 08:21:38;;;;;;;26.23;9.87;;;;;;;-3.38;100.00;98786.19;5041959;28;20212;-70
2021/01/11 08:24:06;;;;;;;24.83;10.27;;;;;;;-3.30;100.00;98783.94;5045516;28;20207;-70
2021/01/11 08:26:40;;;;;;;21.63;9.80;;;;;;;-3.18;100.00;98788.38;5027928;28;20788;-72
2021/01/11 08:29:07;;;;;;;23.83;9.80;;;;;;;-3.24;100.00;98780.94;5035466;28;20217;-71
2021/01/11 08:31:37;;;;;;;25.23;10.07;;;;;;;-3.13;100.00;98771.50;5033821;28;20233;-71
2021/01/11 08:34:03;;;;;;;27.27;9.83;;;;;;;-3.11;100.00;98768.81;5031367;28;20210;-71
2021/01/11 08:36:32;;;;;;;25.43;10.03;;;;;;;-3.06;100.00;98771.97;5031130;28;20596;-71
2021/01/11 08:39:13;;;;;;;21.93;8.83;;;;;;;-3.13;100.00;98768.03;5030964;28;20206;-70
2021/01/11 08:41:42;;;;;;;23.30;10.37;;;;;;;-2.98;100.00;98770.53;5024924;28;20269;-72
2021/01/11 08:44:24;;;;;;;24.63;11.43;;;;;;;-3.22;100.00;98768.63;5033545;28;20261;-75
2021/01/11 08:46:56;;;;;;;26.03;10.60;;;;;;;-3.06;100.00;98779.78;5030603;28;20215;-70
2021/01/11 08:49:23;;;;;;;22.77;9.77;;;;;;;-2.80;100.00;98768.50;5028667;28;20264;-71
2021/01/11 08:51:50;;;;;;;25.70;11.20;;;;;;;-2.74;100.00;98765.47;5030057;28;20614;-72
2021/01/11 08:54:30;;;;;;;21.53;10.33;;;;;;;-2.68;100.00;98765.91;5034348;28;20213;-71
2021/01/11 08:56:59;;;;;;;20.03;9.50;;;;;;;-2.67;100.00;98764.13;5027015;28;20285;-71
2021/01/11 08:59:26;;;;;;;24.27;11.10;;;;;;;-2.95;100.00;98775.53;5037218;28;20282;-73
2021/01/11 09:01:54;;;;;;;27.53;11.67;;;;;;;-2.81;100.00;98767.66;5029577;28;20433;-72
2021/01/11 09:04:34;;;;;;;26.43;11.30;;;;;;;-2.54;100.00;98757.97;5034437;28;20212;-72
2021/01/11 09:07:02;;;;;;;28.73;11.13;;;;;;;-2.67;100.00;98757.13;5027485;28;20887;-71
2021/01/11 09:09:30;;;;;;;27.20;11.83;;;;;;;-2.72;100.00;98757.41;5033910;28;20319;-73
2021/01/11 09:12:01;;;;;;;21.43;10.50;;;;;;;-2.57;100.00;98771.28;5033927;28;20233;-70
2021/01/11 09:14:28;;;;;;;24.93;10.33;;;;;;;-2.62;100.00;98771.56;5042469;28;20205;-71
2021/01/11 09:17:01;;;;;;;21.80;9.60;;;;;;;-2.42;100.00;98775.47;5033504;28;20225;-72
2021/01/11 09:19:28;;;;;;;20.70;9.37;;;;;;;-2.49;100.00;98778.59;5036878;28;20198;-71
2021/01/11 09:22:01;;;;;;;19.10;10.63;;;;;;;-2.04;100.00;98772.91;5043052;28;20225;-72
2021/01/11 09:24:28;;;;;;;24.77;9.13;;;;;;;-2.08;100.00;98781.88;5040617;28;20203;-71
2021/01/11 09:26:56;;;;;;;22.90;10.87;;;;;;;-1.96;100.00;98787.13;5033558;28;20264;-71
2021/01/11 09:29:23;;;;;;;22.87;9.50;;;;;;;-1.73;100.00;98802.91;5035014;28;20705;-71
2021/01/11 09:31:50;;;;;;;22.47;9.37;;;;;;;-1.69;100.00;98810.56;5040948;28;20230;-71
2021/01/11 09:34:19;;;;;;;21.63;9.50;;;;;;;-1.52;100.00;98804.03;5037464;28;20264;-70
2021/01/11 09:36:46;;;;;;;19.77;8.97;;;;;;;-1.02;100.00;98794.38;5036802;28;20206;-71
2021/01/11 09:39:15;;;;;;;20.90;9.03;;;;;;;-1.38;100.00;98788.19;5032364;28;20203;-70
2021/01/11 09:41:44;;;;;;;19.10;8.83;;;;;;;-1.08;100.00;98779.94;5037527;28;20285;-72
2021/01/11 09:44:12;;;;;;;18.60;8.77;;;;;;;-1.50;100.00;98783.00;5038197;28;20213;-71
2021/01/11 09:46:43;;;;;;;19.27;8.93;;;;;;;-1.86;100.00;98790.78;5032255;28;20658;-70
2021/01/11 09:49:10;;;;;;;16.90;8.80;;;;;;;-1.77;100.00;98784.91;5037555;28;20280;-71
2021/01/11 09:51:39;;;;;;;16.67;6.87;;;;;;;-1.55;100.00;98787.72;5037705;28;20197;-72
2021/01/11 09:54:07;;;;;;;15.67;7.90;;;;;;;-1.47;100.00;98774.94;5040687;28;20202;-69
2021/01/11 09:56:35;;;;;;;16.47;7.73;;;;;;;-1.26;100.00;98783.88;5034374;28;20653;-71
2021/01/11 09:59:02;;;;;;;16.27;8.17;;;;;;;-1.06;100.00;98776.25;5038894;28;20186;-69
2021/01/11 10:01:39;;;;;;;16.33;7.40;;;;;;;-0.77;100.00;98775.94;5049177;28;20206;-73
2021/01/11 10:04:06;;;;;;;16.60;7.60;;;;;;;-0.87;100.00;98778.38;5029882;28;20645;-70
2021/01/11 10:06:42;;;;;;;16.87;8.90;;;;;;;-1.18;100.00;98775.50;5047492;28;20323;-70
2021/01/11 10:09:09;;;;;;;16.40;7.50;;;;;;;-1.17;100.00;98778.81;5035968;28;20598;-75
2021/01/11 10:11:37;;;;;;;18.50;8.77;;;;;;;-1.23;100.00;98768.78;5034279;28;20197;-71
2021/01/11 10:14:04;;;;;;;17.90;7.80;;;;;;;-1.14;100.00;98772.53;5038632;28;20214;-73
2021/01/11 10:16:31;;;;;;;18.67;8.13;;;;;;;-1.09;100.00;98773.03;5038504;28;20205;-73
2021/01/11 10:18:57;;;;;;;14.97;6.80;;;;;;;-0.86;100.00;98773.03;5040045;28;20681;-70
2021/01/11 10:21:25;;;;;;;15.77;7.83;;;;;;;-0.67;100.00;98772.53;5034138;28;20206;-76
2021/01/11 10:23:53;;;;;;;13.73;7.50;;;;;;;-0.67;100.00;98769.91;5029448;28;20222;-71
2021/01/11 10:26:21;;;;;;;18.70;7.43;;;;;;;-0.20;100.00;98756.72;5032030;28;20220;-74
2021/01/11 10:28:49;;;;;;;15.07;6.83;;;;;;;0.04;100.00;98747.81;5031555;28;20233;-72
2021/01/11 10:31:16;;;;;;;14.27;7.43;;;;;;;-0.25;100.00;98753.63;5031946;28;20202;-74
2021/01/11 10:33:45;;;;;;;17.47;8.13;;;;;;;-0.57;100.00;98749.94;5029249;28;20225;-73
2021/01/11 10:36:13;;;;;;;17.63;7.93;;;;;;;-0.68;100.00;98755.13;5034516;28;20207;-74
2021/01/11 10:38:40;;;;;;;16.37;8.40;;;;;;;-0.66;100.00;98751.44;5039048;28;20210;-74
2021/01/11 10:41:08;;;;;;;14.43;7.00;;;;;;;-0.60;100.00;98752.81;5033374;28;20907;-73
2021/01/11 10:43:35;;;;;;;13.00;6.63;;;;;;;-0.14;100.00;98748.41;5035335;28;20245;-74
2021/01/11 10:46:03;;;;;;;14.47;7.33;;;;;;;-0.09;100.00;98735.75;5036702;28;20209;-73
2021/01/11 10:48:30;;;;;;;15.87;7.47;;;;;;;0.26;100.00;98728.63;5029361;28;20760;-73
2021/01/11 10:50:57;;;;;;;12.30;6.90;;;;;;;0.14;100.00;98733.03;5037471;28;20206;-73
2021/01/11 10:53:24;;;;;;;13.33;6.87;;;;;;;0.03;100.00;98725.16;5034982;28;20240;-73
2021/01/11 10:55:50;;;;;;;14.60;6.20;;;;;;;0.15;100.00;98718.97;5046370;28;20213;-73
2021/01/11 10:58:18;;;;;;;14.90;7.00;;;;;;;0.47;99.38;98712.00;5034964;28;20201;-75
2021/01/11 11:00:45;;;;;;;14.97;7.30;;;;;;;0.64;96.20;98708.91;5032912;28;20221;-73
2021/01/11 11:03:12;;;;;;;13.43;8.53;;;;;;;0.82;93.42;98701.34;5031756;28;20237;-74
2021/01/11 11:05:38;;;;;;;16.13;8.03;;;;;;;0.21;97.74;98707.97;5034776;28;20205;-73
2021/01/11 11:08:05;;;;;;;12.47;7.00;;;;;;;0.20;98.38;98701.06;5041503;28;20582;-75
2021/01/11 11:10:32;;;;;;;12.63;6.37;;;;;;;0.34;96.77;98706.06;5032153;28;20275;-73
2021/01/11 11:12:59;;;;;;;17.10;7.30;;;;;;;0.22;97.07;98707.00;5033034;28;20233;-72
2021/01/11 11:15:27;;;;;;;17.47;6.67;;;;;;;0.14;99.26;98703.31;5037782;28;20206;-76
2021/01/11 11:17:54;;;;;;;13.67;6.63;;;;;;;0.19;97.42;98698.56;5038100;28;20222;-76
2021/01/11 11:20:21;;;;;;;11.40;6.17;;;;;;;1.01;93.81;98699.72;5042610;28;20210;-78
2021/01/11 11:22:47;;;;;;;14.27;6.47;;;;;;;0.30;96.22;98699.38;5036973;28;20252;-76
2021/01/11 11:25:15;;;;;;;14.07;6.13;;;;;;;0.40;93.96;98702.97;5035830;28;20207;-75
2021/01/11 11:27:41;;;;;;;11.63;6.27;;;;;;;0.29;94.32;98707.38;5029662;28;20314;-80